Barry, United Kingdom
Current Conditions -  °F | °C
As of 7:20 AM on Friday 19 Dec 2014 (Local Time) from EGFF Reporting Station
Overcast Overcast  
Wind Chill: 39°   Ceiling: 3900
Heat Index: 46°   Visibility: 6mi
Dew Point: 41°   Wind: 17mph
Humidity: 81%   Direction: 290°WNW
Pressure: 29.91"   Gusts: NA
Location:  51.41°N, 3.27°W
Report Text: EGFF 190720Z AUTO 29015KT 9999 OVC039 08/05 Q1013
Loading
Personal Weather Stations






























Interactive Weather Map New forecast layout! Learn more

10-Day Weather Forecast

Advertisements
Track Severe Weather on mobile